Time;durP1;ratioP1;P1;durP2;ratioP2;P2;SDS_P1;SDS_P2;PMS_P1;PMS_P2;Temp;Humidity;BMP_temperature;BMP_pressure;BME280_temperature;BME280_humidity;BME280_pressure;Samples;Min_cycle;Max_cycle;Signal;HPM_P1;HPM_P2
2022/01/27 00:02:05;;;;;;;7.68;6.97;;;23.00;51.20;;;;;;5122389;28;20223;-48
2022/01/27 00:04:39;;;;;;;7.35;6.60;;;23.00;51.20;;;;;;5120513;27;20225;-54
2022/01/27 00:07:10;;;;;;;10.43;7.10;;;23.00;51.10;;;;;;5118646;28;20288;-47
2022/01/27 00:09:48;;;;;;;7.63;6.93;;;23.00;51.00;;;;;;5123631;28;20201;-43
2022/01/27 00:12:19;;;;;;;7.35;6.65;;;23.10;51.00;;;;;;5121945;28;20196;-52
2022/01/27 00:15:03;;;;;;;7.35;6.65;;;23.10;51.00;;;;;;5122412;27;20247;-49
2022/01/27 00:17:38;;;;;;;6.95;6.25;;;23.10;51.00;;;;;;5122425;27;20656;-51
2022/01/27 00:20:10;;;;;;;6.82;6.18;;;23.20;51.00;;;;;;5118559;27;20496;-50
2022/01/27 00:22:40;;;;;;;6.32;5.72;;;23.20;51.00;;;;;;5116732;28;20522;-49
2022/01/27 00:25:12;;;;;;;6.57;5.97;;;23.20;50.90;;;;;;5120856;27;20277;-46
2022/01/27 00:27:42;;;;;;;6.65;5.70;;;23.20;50.80;;;;;;5121400;27;22572;-56
2022/01/27 00:30:15;;;;;;;6.30;5.70;;;23.20;50.80;;;;;;5122876;28;20709;-45
2022/01/27 00:32:46;;;;;;;6.75;5.28;;;23.20;50.90;;;;;;5120987;28;20197;-47
2022/01/27 00:35:17;;;;;;;6.20;5.60;;;23.30;50.90;;;;;;5119823;27;20662;-50
2022/01/27 00:37:47;;;;;;;6.95;5.15;;;23.30;50.80;;;;;;5119703;27;20254;-56
2022/01/27 00:40:18;;;;;;;5.32;4.82;;;23.30;50.70;;;;;;5119798;27;20221;-49
2022/01/27 00:42:49;;;;;;;5.07;4.57;;;23.30;50.70;;;;;;5121246;27;20201;-47
2022/01/27 00:45:23;;;;;;;5.40;4.78;;;23.30;50.70;;;;;;5122184;28;20258;-44
2022/01/27 00:47:53;;;;;;;5.38;4.88;;;23.30;50.60;;;;;;5121004;28;20207;-53
2022/01/27 00:50:24;;;;;;;5.55;5.00;;;23.40;50.70;;;;;;5121191;28;20201;-51
2022/01/27 00:52:57;;;;;;;4.97;4.47;;;23.30;50.70;;;;;;5109307;27;20213;-53
2022/01/27 00:55:31;;;;;;;5.70;4.95;;;23.40;50.70;;;;;;5105606;28;20213;-52
2022/01/27 00:58:12;;;;;;;4.85;4.40;;;23.40;50.60;;;;;;5107194;28;20202;-44
2022/01/27 01:00:53;;;;;;;4.68;3.92;;;23.40;50.60;;;;;;5106596;28;20225;-47
2022/01/27 01:03:31;;;;;;;5.28;4.50;;;23.40;50.60;;;;;;5106096;28;20244;-48
2022/01/27 01:06:19;;;;;;;4.28;3.80;;;23.50;50.60;;;;;;5107513;28;20714;-42
2022/01/27 01:14:40;;;;;;;4.47;3.30;;;23.50;50.40;;;;;;5067371;28;20277;-49
2022/01/27 01:20:27;;;;;;;4.20;3.67;;;23.60;50.50;;;;;;5104121;28;20319;-47
2022/01/27 01:31:45;;;;;;;3.28;2.97;;;23.70;50.50;;;;;;5063961;28;20198;-47
2022/01/27 01:34:20;;;;;;;3.80;2.33;;;23.70;50.40;;;;;;5063490;28;20301;-49
2022/01/27 01:36:58;;;;;;;3.40;3.10;;;23.70;50.50;;;;;;5086244;28;20197;-43
2022/01/27 01:39:30;;;;;;;4.07;3.00;;;23.70;50.50;;;;;;5106243;28;20233;-47
2022/01/27 01:42:02;;;;;;;4.68;3.25;;;23.80;50.50;;;;;;5107149;27;20708;-50
2022/01/27 01:44:33;;;;;;;3.63;2.92;;;23.80;50.50;;;;;;5107886;28;20328;-45
2022/01/27 01:47:03;;;;;;;4.07;2.70;;;23.80;50.40;;;;;;5106588;28;20197;-42
2022/01/27 01:49:36;;;;;;;3.17;2.70;;;23.80;50.50;;;;;;5105749;28;20258;-45
2022/01/27 01:52:09;;;;;;;5.57;2.50;;;23.80;50.20;;;;;;5105939;28;20246;-44
2022/01/27 01:54:39;;;;;;;2.88;2.28;;;23.80;49.70;;;;;;5104910;28;20213;-45
2022/01/27 01:57:10;;;;;;;3.08;2.78;;;23.80;49.80;;;;;;5104417;28;20611;-52
2022/01/27 01:59:41;;;;;;;4.47;2.90;;;23.90;50.00;;;;;;5104962;28;20202;-47
2022/01/27 02:02:12;;;;;;;3.00;2.25;;;23.90;50.10;;;;;;5107271;28;20252;-50
2022/01/27 02:04:48;;;;;;;4.40;2.45;;;23.90;50.00;;;;;;5104785;28;20253;-44
2022/01/27 02:07:31;;;;;;;3.75;2.20;;;24.00;49.90;;;;;;5105004;28;20201;-52
2022/01/27 02:10:18;;;;;;;3.67;2.35;;;23.90;49.70;;;;;;5102695;28;20226;-45
2022/01/27 02:18:22;;;;;;;4.63;2.10;;;24.00;49.60;;;;;;5079580;28;20249;-48
2022/01/27 02:20:54;;;;;;;2.20;1.90;;;24.00;49.80;;;;;;5086905;28;20213;-50
2022/01/27 02:23:25;;;;;;;4.03;2.17;;;24.00;49.70;;;;;;5071439;28;20244;-46
2022/01/27 02:25:55;;;;;;;3.35;1.85;;;24.00;49.60;;;;;;5092139;28;20225;-54
2022/01/27 02:28:26;;;;;;;2.97;1.98;;;24.00;49.60;;;;;;5105882;28;20193;-48
2022/01/27 02:30:56;;;;;;;3.60;2.08;;;24.10;49.60;;;;;;5098855;28;20242;-54
2022/01/27 02:33:33;;;;;;;3.10;1.83;;;24.10;49.70;;;;;;5104623;28;20246;-46
2022/01/27 02:36:06;;;;;;;4.45;2.05;;;24.10;49.60;;;;;;5101969;28;20218;-46
2022/01/27 02:38:37;;;;;;;3.90;1.90;;;24.20;49.80;;;;;;5103265;28;20251;-49
2022/01/27 02:41:09;;;;;;;3.15;1.95;;;24.20;49.70;;;;;;5106229;28;20233;-50
2022/01/27 02:43:40;;;;;;;3.72;2.08;;;24.20;49.50;;;;;;5106718;28;20186;-50
2022/01/27 02:46:18;;;;;;;3.58;1.90;;;24.30;49.50;;;;;;5105589;28;20221;-50
2022/01/27 02:48:49;;;;;;;2.47;1.65;;;24.30;49.40;;;;;;5104406;28;20201;-53
2022/01/27 02:51:21;;;;;;;4.38;1.80;;;24.30;49.30;;;;;;5102881;28;20246;-47
2022/01/27 02:53:52;;;;;;;5.18;1.90;;;24.30;49.30;;;;;;5104511;28;20206;-43
2022/01/27 02:56:22;;;;;;;3.15;2.00;;;24.40;49.30;;;;;;5104149;28;20218;-54
2022/01/27 02:58:53;;;;;;;2.17;1.55;;;24.40;49.30;;;;;;5104871;28;20894;-46
2022/01/27 03:01:23;;;;;;;2.17;1.77;;;24.40;49.70;;;;;;5105943;27;20289;-52
2022/01/27 03:03:54;;;;;;;3.33;1.50;;;24.50;49.30;;;;;;5099616;28;20278;-44
2022/01/27 03:06:26;;;;;;;3.80;1.73;;;24.50;49.40;;;;;;5098647;28;20221;-43
2022/01/27 03:08:57;;;;;;;2.75;1.77;;;24.50;49.40;;;;;;5100929;28;20705;-47
2022/01/27 03:11:40;;;;;;;2.33;1.40;;;24.50;49.20;;;;;;5099484;28;20227;-46
2022/01/27 03:14:11;;;;;;;2.85;1.48;;;24.50;49.40;;;;;;5103412;28;20189;-46
2022/01/27 03:16:42;;;;;;;3.60;1.50;;;24.60;49.40;;;;;;5105080;28;20263;-46
2022/01/27 03:19:13;;;;;;;3.05;1.30;;;24.60;49.20;;;;;;5104291;28;20197;-54
2022/01/27 03:21:45;;;;;;;3.10;1.50;;;24.60;49.10;;;;;;5104202;28;20274;-46
2022/01/27 03:24:16;;;;;;;2.47;1.30;;;24.70;49.20;;;;;;5103274;28;20200;-43
2022/01/27 03:26:47;;;;;;;3.60;1.60;;;24.70;49.20;;;;;;5105159;28;20202;-48
2022/01/27 03:29:18;;;;;;;3.17;1.60;;;24.70;49.10;;;;;;5102837;28;20223;-49
2022/01/27 03:31:50;;;;;;;2.63;1.40;;;24.70;49.00;;;;;;5105677;28;20241;-46
2022/01/27 03:34:20;;;;;;;2.53;1.25;;;24.70;48.90;;;;;;5101968;28;20194;-41
2022/01/27 03:36:53;;;;;;;2.95;1.55;;;24.80;48.70;;;;;;5103430;28;20193;-44
2022/01/27 03:39:24;;;;;;;2.38;1.20;;;24.80;48.60;;;;;;5104230;28;20197;-49
2022/01/27 03:41:56;;;;;;;1.98;1.30;;;24.80;48.60;;;;;;5103744;28;20229;-48
2022/01/27 03:44:29;;;;;;;4.03;1.30;;;24.90;48.70;;;;;;5103660;28;20213;-53
2022/01/27 03:47:00;;;;;;;2.95;1.58;;;24.90;48.70;;;;;;5102753;28;20205;-45
2022/01/27 03:49:30;;;;;;;1.58;1.23;;;24.90;48.70;;;;;;5105750;28;20194;-46
2022/01/27 03:52:03;;;;;;;2.53;1.58;;;24.90;48.70;;;;;;5104906;28;20600;-49
2022/01/27 03:54:34;;;;;;;4.40;1.63;;;25.00;48.80;;;;;;5104238;28;20227;-43
2022/01/27 03:57:05;;;;;;;1.50;1.20;;;25.00;48.70;;;;;;5103297;28;20615;-53
2022/01/27 03:59:35;;;;;;;2.65;1.10;;;25.10;48.80;;;;;;5104551;28;20194;-46
2022/01/27 04:02:06;;;;;;;2.13;1.27;;;25.10;48.60;;;;;;5102220;28;20217;-43
2022/01/27 04:04:37;;;;;;;2.30;1.20;;;25.10;48.60;;;;;;5102085;28;20243;-43
2022/01/27 04:07:09;;;;;;;2.78;1.15;;;25.10;48.50;;;;;;5063774;22;20702;-50
2022/01/27 04:09:40;;;;;;;2.78;1.27;;;25.10;48.70;;;;;;5043438;28;20192;-52
2022/01/27 04:12:11;;;;;;;2.60;1.30;;;25.20;48.50;;;;;;5042439;28;20203;-48
2022/01/27 04:14:41;;;;;;;2.05;1.23;;;25.20;48.50;;;;;;5045702;28;20700;-46
2022/01/27 04:17:12;;;;;;;3.13;1.30;;;25.30;48.40;;;;;;5063285;28;20222;-51
2022/01/27 04:19:43;;;;;;;2.95;1.48;;;25.30;48.20;;;;;;5063424;28;20759;-47
2022/01/27 04:22:15;;;;;;;1.52;1.08;;;25.30;48.00;;;;;;5063286;28;20222;-50
2022/01/27 04:24:46;;;;;;;2.65;1.15;;;25.30;47.90;;;;;;5064155;28;20230;-45
2022/01/27 04:27:19;;;;;;;1.73;1.27;;;25.30;48.00;;;;;;5065775;28;20586;-49
2022/01/27 04:29:50;;;;;;;1.85;1.23;;;25.30;47.90;;;;;;5068598;28;20633;-50
2022/01/27 04:32:25;;;;;;;2.00;1.30;;;25.30;47.50;;;;;;5065923;28;20204;-45
2022/01/27 04:35:01;;;;;;;2.45;1.23;;;25.40;47.70;;;;;;5064275;28;20329;-49
2022/01/27 04:37:38;;;;;;;2.15;1.42;;;25.40;47.70;;;;;;5065454;28;20191;-45
2022/01/27 04:40:15;;;;;;;2.15;1.27;;;25.40;47.60;;;;;;5069268;28;20661;-51
2022/01/27 04:42:54;;;;;;;2.38;1.30;;;25.40;47.30;;;;;;5068326;28;20233;-49
2022/01/27 04:45:30;;;;;;;1.60;1.20;;;25.40;47.40;;;;;;5067850;28;20206;-51
2022/01/27 04:48:08;;;;;;;1.50;1.02;;;25.40;48.10;;;;;;5067760;28;20203;-46
2022/01/27 04:50:39;;;;;;;2.25;1.10;;;25.40;47.50;;;;;;5066058;28;20197;-50
2022/01/27 04:53:17;;;;;;;2.10;1.20;;;25.40;47.70;;;;;;5065723;28;20248;-51
2022/01/27 04:55:48;;;;;;;1.42;1.00;;;25.50;47.80;;;;;;5064730;28;20224;-51
2022/01/27 04:58:26;;;;;;;2.75;1.23;;;25.50;47.80;;;;;;5066232;28;20202;-43
2022/01/27 05:00:58;;;;;;;1.77;1.00;;;25.50;47.80;;;;;;5066911;28;20203;-42
2022/01/27 05:03:37;;;;;;;1.95;1.10;;;25.50;47.60;;;;;;5068624;28;20211;-51
2022/01/27 05:06:07;;;;;;;2.17;1.23;;;25.50;47.50;;;;;;5068877;28;20708;-51
2022/01/27 05:08:41;;;;;;;2.45;1.27;;;25.50;47.60;;;;;;5064627;28;20833;-46
2022/01/27 05:11:16;;;;;;;2.35;1.17;;;25.50;47.40;;;;;;5064727;28;20195;-47
2022/01/27 05:13:53;;;;;;;2.10;1.20;;;25.50;47.50;;;;;;5063507;28;20213;-45
2022/01/27 05:16:24;;;;;;;2.17;1.10;;;25.40;47.40;;;;;;5062556;28;20210;-48
2022/01/27 05:18:54;;;;;;;3.25;1.50;;;25.40;47.30;;;;;;5064254;28;20265;-46
2022/01/27 05:21:26;;;;;;;2.50;1.10;;;25.40;46.90;;;;;;5068083;28;20195;-51
2022/01/27 05:23:58;;;;;;;1.48;1.10;;;25.40;46.80;;;;;;5067874;28;20191;-43
2022/01/27 05:26:29;;;;;;;1.75;1.05;;;25.40;47.00;;;;;;5065017;28;20226;-46
2022/01/27 05:28:59;;;;;;;2.05;1.08;;;25.40;47.10;;;;;;5064232;28;20674;-47
2022/01/27 05:31:30;;;;;;;1.88;1.00;;;25.40;47.40;;;;;;5065156;28;20207;-49
2022/01/27 05:34:01;;;;;;;2.40;1.13;;;25.30;47.40;;;;;;5064894;28;20736;-41
2022/01/27 05:36:31;;;;;;;1.35;0.90;;;25.30;47.60;;;;;;5065372;28;20791;-50
2022/01/27 05:39:04;;;;;;;2.58;1.10;;;25.30;47.70;;;;;;5068466;28;20260;-46
2022/01/27 05:41:34;;;;;;;1.52;0.90;;;25.30;47.80;;;;;;5066726;28;20241;-44
2022/01/27 05:44:05;;;;;;;1.85;1.20;;;25.30;47.90;;;;;;5064675;28;20808;-41
2022/01/27 05:46:36;;;;;;;2.05;1.25;;;25.30;47.90;;;;;;5064876;28;20214;-49
2022/01/27 05:49:06;;;;;;;2.97;1.20;;;25.30;47.70;;;;;;5063707;28;20276;-51
2022/01/27 05:51:37;;;;;;;1.85;0.90;;;25.30;47.60;;;;;;5063271;28;20740;-44
2022/01/27 05:54:10;;;;;;;2.20;0.90;;;25.30;47.60;;;;;;5067863;28;20206;-44
2022/01/27 05:56:41;;;;;;;2.20;1.20;;;25.30;47.60;;;;;;5062961;28;20222;-42
2022/01/27 05:59:11;;;;;;;3.42;1.13;;;25.30;47.50;;;;;;5065533;28;20191;-45
2022/01/27 06:01:42;;;;;;;2.83;1.05;;;25.20;47.30;;;;;;5064885;28;20202;-48
2022/01/27 06:04:12;;;;;;;1.83;1.10;;;25.30;47.30;;;;;;5064418;28;20267;-44
2022/01/27 06:06:44;;;;;;;2.65;1.10;;;25.20;47.20;;;;;;5064880;28;20199;-45
2022/01/27 06:09:17;;;;;;;1.85;0.93;;;25.20;47.40;;;;;;5064632;28;20662;-44
2022/01/27 06:11:47;;;;;;;1.42;1.10;;;25.20;47.40;;;;;;5063264;28;20745;-45
2022/01/27 06:14:18;;;;;;;1.48;0.80;;;25.20;47.30;;;;;;5065761;28;20194;-49
2022/01/27 06:16:49;;;;;;;1.83;1.02;;;25.20;47.40;;;;;;5064967;28;20277;-49
2022/01/27 06:19:19;;;;;;;2.65;1.00;;;25.10;47.50;;;;;;5063827;28;20206;-44
2022/01/27 06:21:50;;;;;;;2.38;1.00;;;25.10;47.60;;;;;;5062685;28;20264;-50
2022/01/27 06:24:22;;;;;;;2.47;1.05;;;25.10;47.70;;;;;;5061762;28;20650;-51
2022/01/27 06:26:53;;;;;;;2.38;1.10;;;25.10;47.70;;;;;;5066359;28;20203;-48
2022/01/27 06:29:24;;;;;;;3.13;1.17;;;25.10;47.90;;;;;;5063589;28;20198;-46
2022/01/27 06:31:54;;;;;;;3.33;1.15;;;25.10;47.90;;;;;;5064207;28;20198;-47
2022/01/27 06:34:25;;;;;;;0.90;0.70;;;25.10;48.00;;;;;;5062944;28;20609;-43
2022/01/27 06:36:55;;;;;;;2.22;0.98;;;25.00;48.10;;;;;;5063098;28;20195;-51
2022/01/27 06:39:28;;;;;;;3.42;1.10;;;25.00;48.00;;;;;;5051275;28;20250;-47
2022/01/27 06:42:01;;;;;;;1.48;0.88;;;25.00;47.10;;;;;;5036423;28;20211;-50
2022/01/27 06:44:31;;;;;;;2.13;1.20;;;24.90;46.90;;;;;;5046399;28;20203;-49
2022/01/27 06:47:02;;;;;;;2.60;1.02;;;25.00;46.90;;;;;;5064723;28;20194;-48
2022/01/27 06:49:33;;;;;;;1.52;1.00;;;24.90;46.90;;;;;;5046214;28;20200;-46
2022/01/27 06:52:03;;;;;;;2.42;1.10;;;24.90;46.90;;;;;;5045631;28;20268;-51
2022/01/27 06:54:36;;;;;;;3.85;1.20;;;24.90;47.00;;;;;;5044262;28;20204;-48
2022/01/27 06:57:07;;;;;;;3.20;1.30;;;24.90;46.80;;;;;;5048452;28;20203;-52
2022/01/27 06:59:38;;;;;;;3.03;1.23;;;24.80;46.70;;;;;;5049040;28;20287;-47
2022/01/27 07:02:09;;;;;;;2.70;1.20;;;24.80;47.30;;;;;;5032117;28;20304;-49
2022/01/27 07:04:39;;;;;;;3.65;1.40;;;24.80;46.80;;;;;;5051593;28;20277;-45
2022/01/27 07:07:10;;;;;;;3.72;1.35;;;24.70;47.00;;;;;;5037364;28;20212;-44
2022/01/27 07:09:43;;;;;;;3.03;1.38;;;24.70;47.10;;;;;;5043093;28;20253;-45
2022/01/27 07:12:14;;;;;;;1.67;0.82;;;24.70;47.30;;;;;;5039980;28;20196;-49
2022/01/27 07:14:44;;;;;;;3.33;1.33;;;24.70;47.40;;;;;;5047427;28;20223;-46
2022/01/27 07:17:17;;;;;;;1.92;0.95;;;24.70;47.40;;;;;;5063863;28;20233;-50
2022/01/27 07:19:48;;;;;;;3.22;1.08;;;24.70;47.40;;;;;;5031178;28;20208;-45
2022/01/27 07:22:18;;;;;;;2.75;1.20;;;24.70;47.40;;;;;;5043352;28;20695;-44
2022/01/27 07:24:51;;;;;;;2.15;1.05;;;24.70;47.50;;;;;;5043506;28;20250;-50
2022/01/27 07:27:21;;;;;;;2.42;0.95;;;24.70;47.40;;;;;;5048217;28;20199;-45
2022/01/27 07:29:52;;;;;;;2.42;1.13;;;24.70;47.40;;;;;;5047669;28;20257;-46
2022/01/27 07:32:22;;;;;;;3.13;1.02;;;24.60;47.20;;;;;;5047285;28;20257;-49
2022/01/27 07:34:53;;;;;;;2.78;1.10;;;24.60;47.20;;;;;;5064553;28;20226;-45
2022/01/27 07:37:24;;;;;;;2.33;1.10;;;24.60;47.20;;;;;;5048257;28;20429;-48
2022/01/27 07:39:56;;;;;;;1.65;0.85;;;24.60;47.20;;;;;;5053968;28;21069;-48
2022/01/27 07:42:27;;;;;;;3.20;1.02;;;24.60;47.20;;;;;;5037925;28;20224;-49
2022/01/27 07:44:57;;;;;;;3.00;1.00;;;24.50;47.30;;;;;;5036500;28;20219;-44
2022/01/27 07:47:28;;;;;;;2.95;1.08;;;24.50;47.30;;;;;;5039860;28;20199;-46
2022/01/27 07:49:59;;;;;;;3.05;1.20;;;24.50;47.40;;;;;;5062126;28;20273;-50
2022/01/27 07:52:29;;;;;;;2.22;1.13;;;24.50;47.40;;;;;;5048040;28;20203;-50
2022/01/27 07:55:02;;;;;;;2.22;1.23;;;24.40;47.50;;;;;;5046492;28;20272;-46
2022/01/27 07:57:33;;;;;;;1.90;0.93;;;24.50;47.60;;;;;;5036000;28;20196;-44
2022/01/27 08:00:03;;;;;;;1.42;0.70;;;24.40;47.60;;;;;;5042229;28;20768;-46
2022/01/27 08:02:34;;;;;;;2.75;1.02;;;24.40;47.70;;;;;;5047740;28;20219;-46
2022/01/27 08:05:09;;;;;;;1.20;0.90;;;24.40;47.70;;;;;;5052147;28;20219;-50
2022/01/27 08:07:40;;;;;;;1.85;0.90;;;24.40;47.80;;;;;;5035421;28;20260;-48
2022/01/27 08:10:12;;;;;;;3.97;1.00;;;24.30;47.70;;;;;;5065127;28;20203;-52
2022/01/27 08:12:44;;;;;;;1.70;0.85;;;24.30;47.60;;;;;;5066300;28;20203;-41
2022/01/27 08:15:18;;;;;;;3.85;1.25;;;24.30;47.80;;;;;;5053171;28;20273;-48
2022/01/27 08:17:49;;;;;;;2.30;0.90;;;24.30;47.70;;;;;;5043157;28;20280;-43
2022/01/27 08:20:20;;;;;;;2.00;0.90;;;24.30;47.70;;;;;;5046793;28;20240;-46
2022/01/27 08:22:52;;;;;;;1.83;1.00;;;24.30;47.60;;;;;;5051341;28;20281;-48
2022/01/27 08:25:26;;;;;;;2.40;1.00;;;24.20;47.60;;;;;;5043843;28;20218;-45
2022/01/27 08:27:59;;;;;;;1.25;0.80;;;24.20;47.70;;;;;;5052501;28;20646;-44
2022/01/27 08:30:37;;;;;;;1.75;0.80;;;24.20;47.70;;;;;;5036785;28;20224;-48
2022/01/27 08:33:14;;;;;;;2.40;1.15;;;24.20;47.80;;;;;;5039576;28;20196;-45
2022/01/27 08:35:44;;;;;;;1.70;0.82;;;24.20;47.80;;;;;;5047504;28;20702;-45
2022/01/27 08:38:15;;;;;;;3.55;1.23;;;24.20;48.00;;;;;;5050729;28;20199;-53
2022/01/27 08:40:47;;;;;;;3.40;1.50;;;24.10;48.20;;;;;;5049808;28;20196;-51
2022/01/27 08:43:18;;;;;;;3.78;1.40;;;24.10;48.50;;;;;;5054586;28;20219;-50
2022/01/27 08:45:50;;;;;;;5.47;1.52;;;24.10;48.70;;;;;;5068463;28;20698;-41
2022/01/27 08:48:21;;;;;;;4.43;1.40;;;24.10;48.80;;;;;;5064383;28;20244;-41
2022/01/27 08:50:59;;;;;;;2.35;1.20;;;24.10;48.90;;;;;;5064996;28;20202;-45
2022/01/27 08:53:30;;;;;;;3.38;1.23;;;24.00;49.00;;;;;;5066082;28;20210;-51
2022/01/27 08:56:03;;;;;;;5.25;1.50;;;24.00;49.10;;;;;;5065581;28;20218;-53
2022/01/27 08:58:34;;;;;;;5.05;1.73;;;24.00;49.10;;;;;;5064837;28;20244;-41
2022/01/27 09:01:05;;;;;;;3.40;1.60;;;24.00;49.20;;;;;;5067905;28;20226;-57
2022/01/27 09:03:36;;;;;;;3.63;1.30;;;24.00;49.30;;;;;;5068226;28;20252;-47
2022/01/27 09:06:07;;;;;;;3.20;1.60;;;24.00;49.30;;;;;;5067071;28;20225;-43
2022/01/27 09:08:37;;;;;;;4.65;1.30;;;24.00;49.30;;;;;;5065050;28;20618;-53
2022/01/27 09:11:10;;;;;;;6.28;1.98;;;23.90;49.20;;;;;;5064859;28;20194;-40
2022/01/27 09:13:41;;;;;;;3.70;1.42;;;23.90;49.20;;;;;;5063924;28;20610;-43
2022/01/27 09:16:13;;;;;;;4.25;2.05;;;23.90;49.30;;;;;;5066870;28;20309;-41
2022/01/27 09:18:43;;;;;;;3.85;1.83;;;23.90;49.40;;;;;;5065393;28;20204;-44
2022/01/27 09:21:19;;;;;;;3.92;1.80;;;23.90;49.40;;;;;;5066725;28;20218;-40
2022/01/27 09:23:50;;;;;;;3.17;1.60;;;23.80;49.40;;;;;;5065593;28;20386;-43
2022/01/27 09:26:42;;;;;;;4.38;1.95;;;23.80;49.40;;;;;;5065221;28;20215;-40
2022/01/27 09:29:13;;;;;;;4.55;2.10;;;23.80;49.40;;;;;;5066224;28;20312;-43
2022/01/27 09:31:44;;;;;;;4.15;1.88;;;23.80;49.60;;;;;;5064039;28;20199;-41
2022/01/27 09:34:14;;;;;;;2.92;1.88;;;23.80;49.80;;;;;;5060335;28;20207;-40
2022/01/27 09:36:46;;;;;;;4.70;2.05;;;23.70;49.90;;;;;;5063613;28;20191;-40
2022/01/27 09:39:17;;;;;;;3.15;2.05;;;23.70;49.90;;;;;;5066872;28;20643;-46
2022/01/27 09:41:55;;;;;;;5.82;2.38;;;23.70;49.90;;;;;;5065206;28;20191;-48
2022/01/27 09:44:28;;;;;;;5.57;2.00;;;23.70;49.90;;;;;;5065487;28;20268;-45
2022/01/27 09:47:01;;;;;;;3.40;1.80;;;23.70;49.90;;;;;;5065244;28;20195;-41
2022/01/27 09:49:36;;;;;;;5.03;2.08;;;23.70;50.00;;;;;;5066266;28;20320;-46
2022/01/27 09:52:07;;;;;;;3.90;1.90;;;23.60;50.00;;;;;;5063213;28;20264;-41
2022/01/27 09:54:38;;;;;;;5.28;2.22;;;23.60;49.90;;;;;;5064255;28;20248;-46
2022/01/27 09:57:10;;;;;;;5.22;2.40;;;23.60;49.90;;;;;;5067454;28;20203;-53
2022/01/27 09:59:41;;;;;;;3.55;2.13;;;23.60;50.00;;;;;;5067060;28;20214;-52
2022/01/27 10:02:16;;;;;;;3.97;1.98;;;23.50;49.90;;;;;;5053037;28;20283;-53
2022/01/27 10:04:48;;;;;;;4.13;2.10;;;23.50;50.00;;;;;;5041000;28;20760;-49
2022/01/27 10:07:21;;;;;;;3.75;1.95;;;23.50;50.00;;;;;;5048723;28;20452;-55
2022/01/27 10:10:02;;;;;;;4.65;1.98;;;23.50;49.90;;;;;;5048259;28;20690;-49
2022/01/27 10:12:38;;;;;;;3.13;1.70;;;23.50;50.50;;;;;;5047996;28;20273;-54
2022/01/27 10:15:12;;;;;;;3.72;1.90;;;23.50;49.90;;;;;;5034259;28;20215;-46
2022/01/27 10:18:03;;;;;;;4.35;1.90;;;23.40;49.80;;;;;;5049305;28;20196;-54
2022/01/27 10:20:34;;;;;;;2.70;1.60;;;23.40;49.90;;;;;;5050238;28;20196;-56
2022/01/27 10:23:22;;;;;;;2.42;1.42;;;23.40;49.90;;;;;;5061774;28;20195;-52
2022/01/27 10:25:54;;;;;;;3.78;1.67;;;23.40;49.90;;;;;;5048384;28;20265;-56
2022/01/27 10:28:34;;;;;;;3.75;1.55;;;23.40;49.90;;;;;;5044165;28;20192;-56
2022/01/27 10:31:09;;;;;;;4.45;2.17;;;23.30;49.90;;;;;;5042252;28;20223;-46
2022/01/27 10:33:54;;;;;;;4.95;2.10;;;23.30;50.00;;;;;;5042239;28;20249;-54
2022/01/27 10:36:26;;;;;;;3.88;1.80;;;23.30;50.00;;;;;;5043855;28;20273;-53
2022/01/27 10:38:58;;;;;;;3.55;1.60;;;23.30;49.90;;;;;;5041828;28;20241;-51
2022/01/27 10:41:30;;;;;;;2.88;1.67;;;23.30;50.00;;;;;;5042067;28;20200;-47
2022/01/27 10:44:14;;;;;;;2.80;1.90;;;23.30;50.00;;;;;;5041448;28;20486;-49
2022/01/27 10:47:03;;;;;;;2.38;1.70;;;23.20;50.00;;;;;;5042750;28;20563;-49
2022/01/27 10:49:35;;;;;;;3.10;1.50;;;23.20;49.90;;;;;;5042817;28;20261;-49
2022/01/27 10:52:06;;;;;;;2.45;1.67;;;23.20;49.90;;;;;;5047892;28;20199;-53
2022/01/27 10:54:38;;;;;;;2.80;1.48;;;23.10;49.90;;;;;;5045313;28;20418;-53
2022/01/27 10:57:10;;;;;;;3.17;1.90;;;23.10;49.90;;;;;;5037333;28;20207;-54
2022/01/27 10:59:44;;;;;;;2.75;1.50;;;23.10;49.90;;;;;;5049105;28;20204;-47
2022/01/27 11:02:15;;;;;;;2.85;1.50;;;23.10;50.00;;;;;;5047923;28;20191;-47
2022/01/27 11:04:46;;;;;;;2.63;1.50;;;23.10;50.00;;;;;;5048100;28;20234;-53
2022/01/27 11:07:23;;;;;;;1.85;1.17;;;23.10;50.00;;;;;;5039062;28;20207;-44
2022/01/27 11:09:56;;;;;;;2.92;1.73;;;23.00;49.90;;;;;;5036308;28;20230;-50
2022/01/27 11:12:27;;;;;;;2.10;1.40;;;23.00;50.00;;;;;;5039940;28;20205;-46
2022/01/27 11:15:00;;;;;;;2.92;1.63;;;23.00;50.00;;;;;;5048808;28;20223;-49
2022/01/27 11:17:35;;;;;;;1.92;1.20;;;23.00;50.00;;;;;;5049547;28;20238;-47
2022/01/27 11:23:22;;;;;;;3.15;1.65;;;22.90;50.00;;;;;;5032984;28;20200;-49
2022/01/27 11:25:55;;;;;;;3.67;1.40;;;23.00;50.00;;;;;;5048004;28;20229;-50
2022/01/27 11:28:27;;;;;;;3.83;1.50;;;22.90;50.00;;;;;;5048021;28;20634;-45
2022/01/27 11:31:09;;;;;;;2.65;1.38;;;22.90;50.00;;;;;;5057795;28;20207;-43
2022/01/27 11:33:40;;;;;;;2.55;1.42;;;22.90;50.00;;;;;;5050485;28;20606;-45
2022/01/27 11:36:13;;;;;;;2.22;1.40;;;22.90;50.00;;;;;;5048591;28;20289;-43
2022/01/27 11:38:46;;;;;;;2.17;1.40;;;22.90;50.10;;;;;;5047637;28;20257;-49
2022/01/27 11:41:38;;;;;;;2.55;1.20;;;22.80;50.10;;;;;;5034168;28;20192;-44
2022/01/27 11:44:26;;;;;;;3.60;1.50;;;22.80;50.10;;;;;;5031595;28;20218;-43
2022/01/27 11:47:22;;;;;;;2.63;1.58;;;22.80;50.10;;;;;;5065264;28;20195;-44
2022/01/27 11:49:57;;;;;;;3.67;1.30;;;22.80;50.10;;;;;;5047975;28;20270;-49
2022/01/27 11:52:30;;;;;;;1.88;1.25;;;22.80;50.10;;;;;;5048683;28;20199;-53
2022/01/27 11:55:16;;;;;;;3.40;1.65;;;22.80;50.10;;;;;;5048010;28;20292;-46
2022/01/27 11:57:48;;;;;;;1.88;1.33;;;22.70;50.20;;;;;;5038411;28;20204;-49
2022/01/27 12:00:21;;;;;;;2.03;1.17;;;22.70;50.20;;;;;;5048161;28;20725;-53
2022/01/27 12:03:15;;;;;;;2.45;1.52;;;22.70;50.20;;;;;;5047773;28;20234;-49
2022/01/27 12:06:07;;;;;;;1.48;1.02;;;22.70;50.20;;;;;;5049892;28;20264;-54
2022/01/27 12:08:37;;;;;;;2.35;1.50;;;22.70;50.20;;;;;;5057532;28;20199;-52
2022/01/27 12:11:10;;;;;;;4.45;1.58;;;22.70;50.20;;;;;;5048766;28;20663;-49
2022/01/27 12:14:01;;;;;;;2.15;1.23;;;22.60;50.20;;;;;;5031440;28;20291;-53
2022/01/27 12:16:55;;;;;;;1.63;1.02;;;22.60;50.20;;;;;;5048018;28;20302;-51
2022/01/27 12:19:47;;;;;;;2.30;1.48;;;22.60;50.20;;;;;;5048458;28;20198;-52
2022/01/27 12:22:18;;;;;;;1.50;1.10;;;22.60;50.20;;;;;;5048711;28;20199;-49
2022/01/27 12:24:56;;;;;;;2.03;1.10;;;22.50;50.20;;;;;;5048136;28;20246;-50
2022/01/27 12:27:27;;;;;;;1.65;1.17;;;22.50;50.20;;;;;;5050700;28;20199;-54
2022/01/27 12:29:59;;;;;;;2.30;0.98;;;22.50;50.20;;;;;;5046334;28;20246;-53
2022/01/27 12:32:31;;;;;;;1.60;1.10;;;22.50;50.20;;;;;;5046414;28;20249;-57
2022/01/27 12:35:05;;;;;;;2.92;1.17;;;22.50;50.20;;;;;;5046964;28;20683;-53
2022/01/27 12:37:37;;;;;;;1.90;1.25;;;22.40;50.20;;;;;;5032097;28;20281;-49
2022/01/27 12:40:09;;;;;;;2.30;1.15;;;22.40;50.20;;;;;;5047245;28;20241;-53
2022/01/27 12:42:49;;;;;;;1.75;1.00;;;22.40;50.20;;;;;;5061582;28;20260;-47
2022/01/27 12:45:26;;;;;;;1.92;1.08;;;22.40;50.30;;;;;;5059328;28;20226;-51
2022/01/27 12:47:57;;;;;;;2.13;1.05;;;22.40;50.30;;;;;;5052267;28;20227;-50
2022/01/27 12:50:29;;;;;;;2.35;1.15;;;22.40;50.20;;;;;;5050632;28;20200;-42
2022/01/27 12:53:03;;;;;;;2.30;1.10;;;22.40;50.30;;;;;;5050916;28;20207;-56
2022/01/27 12:55:35;;;;;;;1.80;1.35;;;22.30;50.30;;;;;;5051213;28;20331;-55
2022/01/27 12:58:07;;;;;;;1.20;0.90;;;22.30;50.20;;;;;;5051767;28;20204;-44
2022/01/27 13:00:41;;;;;;;2.05;1.02;;;22.30;50.30;;;;;;5046964;28;20802;-47
2022/01/27 13:03:12;;;;;;;1.88;1.10;;;22.30;50.30;;;;;;5039810;28;20196;-55
2022/01/27 13:05:48;;;;;;;2.90;1.00;;;22.30;50.30;;;;;;5038507;28;20224;-44
2022/01/27 13:08:20;;;;;;;1.80;1.05;;;22.30;50.30;;;;;;5048935;28;20252;-52
2022/01/27 13:10:53;;;;;;;1.65;0.90;;;22.20;50.30;;;;;;5061289;28;20209;-41
2022/01/27 13:13:26;;;;;;;2.05;1.00;;;22.20;50.20;;;;;;5050327;28;20308;-45
2022/01/27 13:16:00;;;;;;;2.05;1.10;;;22.20;50.30;;;;;;5050296;28;20602;-50
2022/01/27 13:18:37;;;;;;;1.50;1.10;;;22.20;50.30;;;;;;5047895;28;20540;-49
2022/01/27 13:21:22;;;;;;;2.35;1.00;;;22.20;50.40;;;;;;5050266;28;20290;-53
2022/01/27 13:24:06;;;;;;;2.08;1.00;;;22.10;50.30;;;;;;5061528;28;20206;-52
2022/01/27 13:26:36;;;;;;;1.63;0.85;;;22.10;50.30;;;;;;5054013;28;20219;-42
2022/01/27 13:29:07;;;;;;;1.70;1.00;;;22.10;50.30;;;;;;5055995;28;20199;-47
2022/01/27 13:31:38;;;;;;;1.48;1.10;;;22.10;50.30;;;;;;5061226;28;20203;-49
2022/01/27 13:34:08;;;;;;;1.90;0.93;;;22.10;50.40;;;;;;5050469;28;20712;-47
2022/01/27 13:36:41;;;;;;;2.53;1.08;;;22.00;50.30;;;;;;5036495;28;20273;-43
2022/01/27 13:39:35;;;;;;;3.08;1.25;;;22.00;50.40;;;;;;5064780;28;20199;-52
2022/01/27 13:42:11;;;;;;;2.15;1.20;;;22.00;50.40;;;;;;5050409;28;20286;-43
2022/01/27 13:44:55;;;;;;;1.38;0.90;;;22.00;50.40;;;;;;5049360;28;20238;-50
2022/01/27 13:47:29;;;;;;;1.67;1.10;;;22.00;50.50;;;;;;5041153;28;20200;-50